createdAt,value
2018-03-27T00:02:11.604Z,4.22
2018-03-27T00:04:40.650Z,4.15
2018-03-27T00:07:09.726Z,4.04
2018-03-27T00:09:38.742Z,4.12
2018-03-27T00:12:07.943Z,4.14
2018-03-27T00:14:36.996Z,4.22
2018-03-27T00:17:06.139Z,4.18
2018-03-27T00:19:35.180Z,4.26
2018-03-27T00:24:42.400Z,4.34
2018-03-27T00:27:10.714Z,4.32
2018-03-27T00:29:57.576Z,4.37
2018-03-27T00:35:27.419Z,4.54
2018-03-27T00:43:15.278Z,4.64
2018-03-27T00:48:20.567Z,4.50
2018-03-27T00:50:49.836Z,4.58
2018-03-27T00:53:18.877Z,4.45
2018-03-27T00:55:47.943Z,4.41
2018-03-27T00:58:17.006Z,4.38
2018-03-27T01:00:46.068Z,4.35
2018-03-27T01:03:15.198Z,4.51
2018-03-27T01:05:44.240Z,4.47
2018-03-27T01:08:13.295Z,4.34
2018-03-27T01:10:42.349Z,4.34
2018-03-27T01:13:11.585Z,4.29
2018-03-27T01:15:40.640Z,4.36
2018-03-27T01:18:09.714Z,4.28
2018-03-27T01:20:38.811Z,4.31
2018-03-27T01:23:07.855Z,4.33
2018-03-27T01:25:36.911Z,4.34
2018-03-27T01:28:06.148Z,4.31
2018-03-27T01:30:35.400Z,4.31
2018-03-27T01:33:04.421Z,4.37
2018-03-27T01:35:33.481Z,4.43
2018-03-27T01:38:02.543Z,4.44
2018-03-27T01:40:31.763Z,4.45
2018-03-27T01:43:00.801Z,4.36
2018-03-27T01:45:29.863Z,4.19
2018-03-27T01:47:58.899Z,4.15
2018-03-27T01:50:27.952Z,4.15
2018-03-27T01:52:56.994Z,4.16
2018-03-27T01:55:26.066Z,4.06
2018-03-27T01:57:56.062Z,4.24
2018-03-27T02:00:25.168Z,4.29
2018-03-27T02:02:57.575Z,4.26
2018-03-27T02:05:26.620Z,4.20
2018-03-27T02:10:30.977Z,4.10
2018-03-27T02:13:06.755Z,3.99
2018-03-27T02:18:23.823Z,4.12
2018-03-27T02:20:58.579Z,4.06
2018-03-27T02:23:33.007Z,4.06
2018-03-27T02:26:02.051Z,4.02
2018-03-27T02:28:31.108Z,3.91
2018-03-27T02:31:00.178Z,3.86
2018-03-27T02:33:29.235Z,3.76
2018-03-27T02:36:05.747Z,3.80
2018-03-27T02:38:34.819Z,3.77
2018-03-27T02:41:04.792Z,3.78
2018-03-27T02:43:37.747Z,3.77
2018-03-27T02:48:43.137Z,3.76
2018-03-27T02:51:12.159Z,3.73
2018-03-27T02:53:41.208Z,3.78
2018-03-27T02:56:10.354Z,3.76
2018-03-27T02:58:39.391Z,3.90
2018-03-27T03:01:08.475Z,3.78
2018-03-27T03:03:37.525Z,3.72
2018-03-27T03:06:06.714Z,3.73
2018-03-27T03:08:35.785Z,3.70
2018-03-27T03:11:04.820Z,3.71
2018-03-27T03:13:34.119Z,3.66
2018-03-27T03:16:03.185Z,3.67
2018-03-27T03:21:07.419Z,3.69
2018-03-27T03:23:36.488Z,3.71
2018-03-27T03:26:05.551Z,3.69
2018-03-27T03:28:34.695Z,3.73
2018-03-27T03:31:03.755Z,3.74
2018-03-27T03:33:32.799Z,3.82
2018-03-27T03:36:01.846Z,3.83
2018-03-27T03:38:31.037Z,3.78
2018-03-27T03:41:00.106Z,3.90
2018-03-27T03:43:29.138Z,3.96
2018-03-27T03:45:58.439Z,3.91
2018-03-27T03:48:27.506Z,3.96
2018-03-27T03:50:56.546Z,3.91
2018-03-27T03:53:25.596Z,3.79
2018-03-27T03:55:54.735Z,3.70
2018-03-27T03:58:23.784Z,3.69
2018-03-27T04:00:52.832Z,3.87
2018-03-27T04:03:22.041Z,3.90
2018-03-27T04:05:51.073Z,3.86
2018-03-27T04:08:20.133Z,3.88
2018-03-27T04:10:49.274Z,3.91
2018-03-27T04:13:18.328Z,3.90
2018-03-27T04:15:47.386Z,4.00
2018-03-27T04:18:16.448Z,3.87
2018-03-27T04:20:45.506Z,3.86
2018-03-27T04:23:14.575Z,3.73
2018-03-27T04:25:43.631Z,3.62
2018-03-27T04:28:12.734Z,3.60
2018-03-27T04:30:41.765Z,3.62
2018-03-27T04:33:10.844Z,3.65
2018-03-27T04:35:39.901Z,3.49
2018-03-27T04:38:09.044Z,3.46
2018-03-27T04:40:38.089Z,3.50
2018-03-27T04:43:07.367Z,3.64
2018-03-27T04:45:36.531Z,3.71
2018-03-27T04:48:05.810Z,3.79
2018-03-27T04:50:34.856Z,3.60
2018-03-27T04:53:03.912Z,3.58
2018-03-27T04:55:33.995Z,3.42
2018-03-27T05:00:40.466Z,3.42
2018-03-27T05:03:09.817Z,3.44
2018-03-27T05:05:38.885Z,3.38
2018-03-27T05:08:07.947Z,3.44
2018-03-27T05:10:37.115Z,3.36
2018-03-27T05:13:06.205Z,3.27
2018-03-27T05:15:35.265Z,3.24
2018-03-27T05:18:04.384Z,3.32
2018-03-27T05:20:33.518Z,3.48
2018-03-27T05:23:02.574Z,3.30
2018-03-27T05:25:31.616Z,3.18
2018-03-27T05:28:02.751Z,3.27
2018-03-27T05:30:31.876Z,3.27
2018-03-27T05:33:00.909Z,3.21
2018-03-27T05:35:30.173Z,3.21
2018-03-27T05:37:59.224Z,3.11
2018-03-27T05:40:28.283Z,3.20
2018-03-27T05:42:57.361Z,3.18
2018-03-27T05:45:26.423Z,3.20
2018-03-27T05:47:55.488Z,3.38
2018-03-27T05:50:24.561Z,3.41
2018-03-27T05:52:54.341Z,3.36
2018-03-27T05:55:23.401Z,3.36
2018-03-27T05:57:53.480Z,3.24
2018-03-27T06:00:25.210Z,3.19
2018-03-27T06:02:54.426Z,3.16
2018-03-27T06:05:23.471Z,3.06
2018-03-27T06:07:54.649Z,3.16
2018-03-27T06:10:23.750Z,3.12
2018-03-27T06:12:52.813Z,3.25
2018-03-27T06:15:21.944Z,3.28
2018-03-27T06:17:51.283Z,3.15
2018-03-27T06:20:20.338Z,3.08
2018-03-27T06:22:49.568Z,3.13
2018-03-27T06:25:18.632Z,3.14
2018-03-27T06:27:48.632Z,3.21
2018-03-27T06:30:17.840Z,3.28
2018-03-27T06:32:46.915Z,3.40
2018-03-27T06:35:16.082Z,3.33
2018-03-27T06:37:45.264Z,3.14
2018-03-27T06:40:14.319Z,3.17
2018-03-27T06:42:43.379Z,3.32
2018-03-27T06:45:13.442Z,3.42
2018-03-27T06:47:44.532Z,3.70
2018-03-27T06:50:14.484Z,3.83
2018-03-27T06:55:18.795Z,3.62
2018-03-27T07:00:24.036Z,3.57
2018-03-27T07:02:53.129Z,3.62
2018-03-27T07:05:23.276Z,3.69
2018-03-27T07:07:57.724Z,3.60
2018-03-27T07:10:28.352Z,3.90
2018-03-27T07:12:56.946Z,3.75
2018-03-27T07:15:25.483Z,3.83
2018-03-27T07:17:53.989Z,3.77
2018-03-27T07:20:30.380Z,3.89
2018-03-27T07:23:00.650Z,3.84
2018-03-27T07:25:29.170Z,3.88
2018-03-27T07:27:57.770Z,4.04
2018-03-27T07:30:26.270Z,4.19
2018-03-27T07:32:54.779Z,4.22
2018-03-27T07:35:23.839Z,4.35
2018-03-27T07:37:54.172Z,4.56
2018-03-27T07:40:23.694Z,4.60
2018-03-27T07:42:52.217Z,4.63
2018-03-27T07:45:20.738Z,4.54
2018-03-27T07:47:56.204Z,4.59
2018-03-27T07:50:24.715Z,4.82
2018-03-27T07:52:53.242Z,4.90
2018-03-27T07:55:22.959Z,5.06
2018-03-27T07:57:52.502Z,4.92
2018-03-27T08:00:21.024Z,5.25
2018-03-27T08:02:53.050Z,5.45
2018-03-27T08:05:26.498Z,5.58
2018-03-27T08:07:55.017Z,5.93
2018-03-27T08:10:25.058Z,6.01
2018-03-27T08:12:53.579Z,6.06
2018-03-27T08:15:33.307Z,6.16
2018-03-27T08:18:03.745Z,6.30
2018-03-27T08:20:34.270Z,6.67
2018-03-27T08:23:02.796Z,6.64
2018-03-27T08:25:31.570Z,6.60
2018-03-27T08:28:00.120Z,6.76
2018-03-27T08:30:30.162Z,6.96
2018-03-27T08:32:58.696Z,6.87
2018-03-27T08:35:27.203Z,7.00
2018-03-27T08:37:57.558Z,7.13
2018-03-27T08:40:26.078Z,7.35
2018-03-27T08:42:55.386Z,7.29
2018-03-27T08:45:37.092Z,7.42
2018-03-27T08:48:06.175Z,7.30
2018-03-27T08:50:34.729Z,7.45
2018-03-27T08:53:12.460Z,7.71
2018-03-27T08:55:40.954Z,7.77
2018-03-27T08:58:11.858Z,7.25
2018-03-27T09:00:40.421Z,6.86
2018-03-27T09:03:09.508Z,6.61
2018-03-27T09:05:39.067Z,6.73
2018-03-27T09:08:07.807Z,8.04
2018-03-27T09:10:37.334Z,9.73
2018-03-27T09:13:05.858Z,11.29
2018-03-27T09:15:34.626Z,12.72
2018-03-27T09:18:03.486Z,12.75
2018-03-27T09:20:31.998Z,11.55
2018-03-27T09:23:00.821Z,10.41
2018-03-27T09:25:31.308Z,9.16
2018-03-27T09:27:59.970Z,9.01
2018-03-27T09:30:32.132Z,11.28
2018-03-27T09:33:01.250Z,11.55
2018-03-27T09:35:30.690Z,12.46
2018-03-27T09:37:59.631Z,13.12
2018-03-27T09:40:28.321Z,11.43
2018-03-27T09:42:57.438Z,10.37
2018-03-27T09:45:25.997Z,9.94
2018-03-27T09:47:55.768Z,9.81
2018-03-27T09:50:27.012Z,10.26
2018-03-27T09:52:55.547Z,11.06
2018-03-27T09:55:24.797Z,11.48
2018-03-27T09:57:53.634Z,10.73
2018-03-27T10:00:28.377Z,10.60
2018-03-27T10:02:57.560Z,12.59
2018-03-27T10:05:26.090Z,14.61
2018-03-27T10:07:55.125Z,15.74
2018-03-27T10:10:23.658Z,17.47
2018-03-27T10:12:53.856Z,19.45
2018-03-27T10:15:22.374Z,18.03
2018-03-27T10:17:53.198Z,14.58
2018-03-27T10:20:26.930Z,13.51
2018-03-27T10:22:56.088Z,13.84
2018-03-27T10:25:25.290Z,15.15
2018-03-27T10:27:54.175Z,14.93
2018-03-27T10:30:24.539Z,15.32
2018-03-27T10:32:54.578Z,18.67
2018-03-27T10:35:23.114Z,21.07
2018-03-27T10:37:53.376Z,20.91
2018-03-27T10:40:22.846Z,20.37
2018-03-27T10:42:52.626Z,15.22
2018-03-27T10:45:24.067Z,15.81
2018-03-27T10:47:53.191Z,17.23
2018-03-27T10:50:22.551Z,18.66
2018-03-27T10:52:52.959Z,18.89
2018-03-27T10:55:22.534Z,20.16
2018-03-27T10:57:52.579Z,19.41
2018-03-27T11:00:21.133Z,18.33
2018-03-27T11:02:50.223Z,16.20
2018-03-27T11:05:18.723Z,14.30
2018-03-27T11:07:47.610Z,12.45
2018-03-27T11:10:16.145Z,13.93
2018-03-27T11:12:45.110Z,16.13
2018-03-27T11:15:13.613Z,18.01
2018-03-27T11:17:43.135Z,18.96
2018-03-27T11:20:11.635Z,20.90
2018-03-27T11:22:40.272Z,21.01
2018-03-27T11:25:11.073Z,19.48
2018-03-27T11:27:42.113Z,17.67
2018-03-27T11:30:10.622Z,15.71
2018-03-27T11:32:39.158Z,13.65
2018-03-27T11:35:07.718Z,12.35
2018-03-27T11:37:36.259Z,11.73
2018-03-27T11:40:05.261Z,11.03
2018-03-27T11:42:33.784Z,11.81
2018-03-27T11:45:03.803Z,11.85
2018-03-27T11:47:32.399Z,10.76
2018-03-27T11:50:02.534Z,10.55
2018-03-27T11:52:31.063Z,11.02
2018-03-27T11:54:59.576Z,12.45
2018-03-27T11:57:30.556Z,15.03
2018-03-27T11:59:59.057Z,18.86
2018-03-27T12:02:28.558Z,20.39
2018-03-27T12:04:57.082Z,21.42
2018-03-27T12:07:25.912Z,21.04
2018-03-27T12:09:55.049Z,21.81
2018-03-27T12:12:23.585Z,23.52
2018-03-27T12:14:53.279Z,20.28
2018-03-27T12:17:21.859Z,16.80
2018-03-27T12:19:52.638Z,14.83
2018-03-27T12:22:21.186Z,13.01
2018-03-27T12:24:50.642Z,12.02
2018-03-27T12:27:23.731Z,12.07
2018-03-27T12:29:53.315Z,12.18
2018-03-27T12:32:23.446Z,12.25
2018-03-27T12:34:53.192Z,12.77
2018-03-27T12:37:22.622Z,13.07
2018-03-27T12:39:51.884Z,13.58
2018-03-27T12:42:21.434Z,13.21
2018-03-27T12:44:52.377Z,11.89
2018-03-27T12:47:20.883Z,11.09
2018-03-27T12:49:50.032Z,11.11
2018-03-27T12:52:20.474Z,10.79
2018-03-27T12:54:49.059Z,11.30
2018-03-27T12:57:17.590Z,12.12
2018-03-27T12:59:46.478Z,12.49
2018-03-27T13:02:15.030Z,12.61
2018-03-27T13:04:44.013Z,12.74
2018-03-27T13:07:14.481Z,12.79
2018-03-27T13:09:43.202Z,13.22
2018-03-27T13:12:11.722Z,14.41
2018-03-27T13:14:42.163Z,14.48
2018-03-27T13:17:11.905Z,14.71
2018-03-27T13:19:40.471Z,14.39
2018-03-27T13:22:09.010Z,14.01
2018-03-27T13:24:38.618Z,13.55
2018-03-27T13:27:07.122Z,13.49
2018-03-27T13:29:35.662Z,13.22
2018-03-27T13:32:04.193Z,12.53
2018-03-27T13:34:36.825Z,12.87
2018-03-27T13:37:05.395Z,13.37
2018-03-27T13:39:35.042Z,13.04
2018-03-27T13:42:07.170Z,12.27
2018-03-27T13:44:36.601Z,12.08
2018-03-27T13:47:07.134Z,11.68
2018-03-27T13:49:35.677Z,11.46
2018-03-27T13:52:05.123Z,11.48
2018-03-27T13:54:35.586Z,12.19
2018-03-27T13:57:06.107Z,11.93
2018-03-27T13:59:38.192Z,12.04
2018-03-27T14:02:16.996Z,13.07
2018-03-27T14:04:46.833Z,13.55
2018-03-27T14:07:17.324Z,14.72
2018-03-27T14:09:45.849Z,16.12
2018-03-27T14:12:14.397Z,18.77
2018-03-27T14:14:42.919Z,19.05
2018-03-27T14:17:13.072Z,17.03
2018-03-27T14:19:42.506Z,15.04
2018-03-27T14:22:11.054Z,13.82
2018-03-27T14:24:40.165Z,13.17
2018-03-27T14:27:10.661Z,12.31
2018-03-27T14:29:39.760Z,12.40
2018-03-27T14:32:08.362Z,11.75
2018-03-27T14:34:36.893Z,12.05
2018-03-27T14:37:05.949Z,13.22
2018-03-27T14:39:34.487Z,14.17
2018-03-27T14:42:04.358Z,14.00
2018-03-27T14:44:32.879Z,13.98
2018-03-27T14:47:03.422Z,14.08
2018-03-27T14:49:32.937Z,15.12
2018-03-27T14:52:01.467Z,15.12
2018-03-27T14:54:30.013Z,14.91
2018-03-27T14:56:58.533Z,13.75
2018-03-27T14:59:27.524Z,14.71
2018-03-27T15:01:56.030Z,15.42
2018-03-27T15:04:25.670Z,14.58
2018-03-27T15:06:54.200Z,14.28
2018-03-27T15:09:22.733Z,13.93
2018-03-27T15:11:52.685Z,13.28
2018-03-27T15:14:21.751Z,13.00
2018-03-27T15:16:51.699Z,13.99
2018-03-27T15:19:21.221Z,14.74
2018-03-27T15:21:51.150Z,15.65
2018-03-27T15:24:19.652Z,16.70
2018-03-27T15:26:49.470Z,17.18
2018-03-27T15:29:19.972Z,17.80
2018-03-27T15:31:48.503Z,18.03
2018-03-27T15:34:18.465Z,16.70
2018-03-27T15:36:47.892Z,14.72
2018-03-27T15:39:16.430Z,14.43
2018-03-27T15:41:45.217Z,13.48
2018-03-27T15:44:13.742Z,12.09
2018-03-27T15:46:43.909Z,11.73
2018-03-27T15:49:12.433Z,11.41
2018-03-27T15:51:41.145Z,10.99
2018-03-27T15:54:09.711Z,11.06
2018-03-27T15:56:43.653Z,11.45
2018-03-27T15:59:12.186Z,12.38
2018-03-27T16:01:40.731Z,13.46
2018-03-27T16:04:09.261Z,13.93
2018-03-27T16:06:38.154Z,13.48
2018-03-27T16:09:06.770Z,13.31
2018-03-27T16:11:35.286Z,12.52
2018-03-27T16:14:03.809Z,12.06
2018-03-27T16:16:32.362Z,12.23
2018-03-27T16:19:00.889Z,12.32
2018-03-27T16:21:30.458Z,12.14
2018-03-27T16:24:05.878Z,12.06
2018-03-27T16:26:34.410Z,11.24
2018-03-27T16:29:02.951Z,11.10
2018-03-27T16:31:35.378Z,11.18
2018-03-27T16:34:03.955Z,11.15
2018-03-27T16:36:32.789Z,11.03
2018-03-27T16:39:02.296Z,10.84
2018-03-27T16:41:44.597Z,10.81
2018-03-27T16:44:13.179Z,10.57
2018-03-27T16:46:42.424Z,10.19
2018-03-27T16:49:10.983Z,9.97
2018-03-27T16:51:41.390Z,9.56
2018-03-27T16:54:09.910Z,9.48
2018-03-27T16:56:44.150Z,9.38
2018-03-27T16:59:13.302Z,9.25
2018-03-27T17:01:41.818Z,9.17
2018-03-27T17:04:10.301Z,9.13
2018-03-27T17:06:40.219Z,9.08
2018-03-27T17:09:08.727Z,9.04
2018-03-27T17:11:39.514Z,9.01
2018-03-27T17:14:08.037Z,8.93
2018-03-27T17:16:38.491Z,8.78
2018-03-27T17:19:07.046Z,8.53
2018-03-27T17:21:35.564Z,8.31
2018-03-27T17:24:04.097Z,8.24
2018-03-27T17:26:32.609Z,8.20
2018-03-27T17:29:01.307Z,8.09
2018-03-27T17:31:30.912Z,7.93
2018-03-27T17:33:59.546Z,7.75
2018-03-27T17:36:28.214Z,7.58
2018-03-27T17:38:56.730Z,7.24
2018-03-27T17:41:25.247Z,6.94
2018-03-27T17:43:54.867Z,6.66
2018-03-27T17:46:25.322Z,6.44
2018-03-27T17:48:53.845Z,6.28
2018-03-27T17:51:26.503Z,6.14
2018-03-27T17:53:55.006Z,6.00
2018-03-27T17:56:26.958Z,5.83
2018-03-27T17:58:55.488Z,5.68
2018-03-27T18:01:25.926Z,5.55
2018-03-27T18:04:00.232Z,5.40
2018-03-27T18:06:28.778Z,5.35
2018-03-27T18:09:05.079Z,5.18
2018-03-27T18:11:34.733Z,4.94
2018-03-27T18:14:03.258Z,4.80
2018-03-27T18:16:31.794Z,4.88
2018-03-27T18:19:04.783Z,4.71
2018-03-27T18:21:33.364Z,4.51
2018-03-27T18:24:03.955Z,4.42
2018-03-27T18:26:32.467Z,4.22
2018-03-27T18:29:04.718Z,4.05
2018-03-27T18:31:33.238Z,3.91
2018-03-27T18:34:11.436Z,3.75
2018-03-27T18:36:39.936Z,3.71
2018-03-27T18:39:09.399Z,3.69
2018-03-27T18:41:38.164Z,3.62
2018-03-27T18:44:16.588Z,3.63
2018-03-27T18:46:45.288Z,3.63
2018-03-27T18:49:23.009Z,3.70
2018-03-27T18:51:52.491Z,3.67
2018-03-27T18:54:26.612Z,3.68
2018-03-27T18:56:56.234Z,3.63
2018-03-27T18:59:24.991Z,3.56
2018-03-27T19:01:53.544Z,3.50
2018-03-27T19:04:22.057Z,3.41
2018-03-27T19:06:54.516Z,3.21
2018-03-27T19:09:23.208Z,3.13
2018-03-27T19:11:53.922Z,3.18
2018-03-27T19:14:22.445Z,3.16
2018-03-27T19:16:52.103Z,3.16
2018-03-27T19:19:20.650Z,3.17
2018-03-27T19:21:49.193Z,3.19
2018-03-27T19:24:22.471Z,3.29
2018-03-27T19:26:50.971Z,3.39
2018-03-27T19:29:20.473Z,3.49
2018-03-27T19:31:56.545Z,3.52
2018-03-27T19:34:25.103Z,3.57
2018-03-27T19:36:54.577Z,3.66
2018-03-27T19:39:32.690Z,3.72
2018-03-27T19:42:01.493Z,3.80
2018-03-27T19:44:51.917Z,3.94
2018-03-27T19:47:22.402Z,3.94
2018-03-27T19:49:51.005Z,3.89
2018-03-27T19:52:46.981Z,3.98
2018-03-27T19:55:20.100Z,3.90
2018-03-27T19:57:48.606Z,3.95
2018-03-27T20:00:17.274Z,4.05
2018-03-27T20:02:46.396Z,4.10
2018-03-27T20:05:14.965Z,4.21
2018-03-27T20:07:43.851Z,4.33
2018-03-27T20:10:12.491Z,4.38
2018-03-27T20:12:41.128Z,4.46
2018-03-27T20:15:09.979Z,4.39
2018-03-27T20:17:38.499Z,4.46
2018-03-27T20:20:07.037Z,4.61
2018-03-27T20:22:35.543Z,4.86
2018-03-27T20:25:04.055Z,5.33
2018-03-27T20:27:33.473Z,5.97
2018-03-27T20:30:01.995Z,6.07
2018-03-27T20:32:30.572Z,6.10
2018-03-27T20:34:59.126Z,6.10
2018-03-27T20:37:39.298Z,5.98
2018-03-27T20:40:07.875Z,5.89
2018-03-27T20:42:36.402Z,5.76
2018-03-27T20:45:04.998Z,5.68
2018-03-27T20:47:33.525Z,5.60
2018-03-27T20:50:11.754Z,5.59
2018-03-27T20:52:40.267Z,5.66
2018-03-27T20:55:16.442Z,5.77
2018-03-27T20:57:44.893Z,5.74
2018-03-27T21:00:13.412Z,5.72
2018-03-27T21:02:41.937Z,5.72
2018-03-27T21:05:15.471Z,5.71
2018-03-27T21:07:44.879Z,5.80
2018-03-27T21:10:15.292Z,5.88
2018-03-27T21:12:44.149Z,5.95
2018-03-27T21:15:12.669Z,5.98
2018-03-27T21:17:41.197Z,5.99
2018-03-27T21:20:14.862Z,6.09
2018-03-27T21:22:44.746Z,6.12
2018-03-27T21:25:15.163Z,6.11
2018-03-27T21:27:44.632Z,6.16
2018-03-27T21:30:15.085Z,6.14
2018-03-27T21:32:43.625Z,6.19
2018-03-27T21:35:12.258Z,6.13
2018-03-27T21:38:03.555Z,5.99
2018-03-27T21:40:32.297Z,5.92
2018-03-27T21:43:02.987Z,5.85
2018-03-27T21:45:31.500Z,5.84
2018-03-27T21:48:09.987Z,5.72
2018-03-27T21:50:38.510Z,5.71
2018-03-27T21:53:10.504Z,5.69
2018-03-27T21:55:43.054Z,5.68
2018-03-27T21:58:18.807Z,5.52
2018-03-27T22:00:52.851Z,5.50
2018-03-27T22:03:29.552Z,5.50
2018-03-27T22:05:58.445Z,5.48
2018-03-27T22:08:26.970Z,5.35
2018-03-27T22:10:55.478Z,5.34
2018-03-27T22:13:27.186Z,5.35
2018-03-27T22:15:55.715Z,5.37
2018-03-27T22:18:25.190Z,5.36
2018-03-27T22:20:56.539Z,5.33
2018-03-27T22:23:33.997Z,5.34
2018-03-27T22:26:02.565Z,5.32
2018-03-27T22:28:32.150Z,5.33
2018-03-27T22:31:00.681Z,5.30
2018-03-27T22:33:29.198Z,5.27
2018-03-27T22:35:57.737Z,5.28
2018-03-27T22:38:26.264Z,5.25
2018-03-27T22:40:54.774Z,5.25
2018-03-27T22:43:37.099Z,5.18
2018-03-27T22:46:33.511Z,5.20
2018-03-27T22:49:15.693Z,5.20
2018-03-27T22:51:44.209Z,5.12
2018-03-27T22:54:12.758Z,5.06
2018-03-27T22:56:41.278Z,5.03
2018-03-27T22:59:09.809Z,4.99
2018-03-27T23:01:40.231Z,4.91
2018-03-27T23:04:17.293Z,4.88
2018-03-27T23:06:45.820Z,4.80
2018-03-27T23:09:15.242Z,4.70
2018-03-27T23:11:43.866Z,4.64
2018-03-27T23:14:12.374Z,4.66
2018-03-27T23:16:40.925Z,4.61
2018-03-27T23:19:09.547Z,4.52
2018-03-27T23:21:47.439Z,4.46
2018-03-27T23:24:15.958Z,4.42
2018-03-27T23:26:44.705Z,4.43
2018-03-27T23:29:13.284Z,4.44
2018-03-27T23:31:41.794Z,4.44
2018-03-27T23:34:14.283Z,4.42
2018-03-27T23:36:42.844Z,4.43
2018-03-27T23:39:12.277Z,4.36
2018-03-27T23:41:40.807Z,4.34
2018-03-27T23:44:09.324Z,4.26
2018-03-27T23:46:37.940Z,4.27
2018-03-27T23:49:07.409Z,4.26
2018-03-27T23:51:36.097Z,4.29
2018-03-27T23:54:04.782Z,4.34
2018-03-27T23:56:33.295Z,4.31
2018-03-27T23:59:18.721Z,4.23
